sensor_id;sensor_type;location;lat;lon;timestamp;pressure;altitude;pressure_sealevel;temperature;humidity
79465;BME280;68932;47.410;8.232;2023-04-06T00:01:57;97016.78;;;2.76;58.89
79465;BME280;68932;47.410;8.232;2023-04-06T00:04:23;97013.29;;;2.72;58.89
79465;BME280;68932;47.410;8.232;2023-04-06T00:06:50;97012.60;;;2.67;58.99
79465;BME280;68932;47.410;8.232;2023-04-06T00:09:17;97013.51;;;2.61;59.10
79465;BME280;68932;47.410;8.232;2023-04-06T00:11:44;97008.73;;;2.53;59.33
79465;BME280;68932;47.410;8.232;2023-04-06T00:14:11;97008.21;;;2.48;59.36
79465;BME280;68932;47.410;8.232;2023-04-06T00:16:38;97005.71;;;2.46;59.52
79465;BME280;68932;47.410;8.232;2023-04-06T00:19:05;97005.79;;;2.44;59.82
79465;BME280;68932;47.410;8.232;2023-04-06T00:21:32;97007.27;;;2.40;59.94
79465;BME280;68932;47.410;8.232;2023-04-06T00:23:59;97008.76;;;2.37;59.99
79465;BME280;68932;47.410;8.232;2023-04-06T00:26:25;97008.13;;;2.34;60.14
79465;BME280;68932;47.410;8.232;2023-04-06T00:28:52;97002.49;;;2.32;60.15
79465;BME280;68932;47.410;8.232;2023-04-06T00:31:19;96997.95;;;2.28;60.48
79465;BME280;68932;47.410;8.232;2023-04-06T00:33:47;96998.73;;;2.25;60.56
79465;BME280;68932;47.410;8.232;2023-04-06T00:36:14;96997.68;;;2.21;60.62
79465;BME280;68932;47.410;8.232;2023-04-06T00:38:42;96998.02;;;2.16;60.82
79465;BME280;68932;47.410;8.232;2023-04-06T00:41:08;96993.52;;;2.10;60.86
79465;BME280;68932;47.410;8.232;2023-04-06T00:43:35;96993.44;;;2.08;60.78
79465;BME280;68932;47.410;8.232;2023-04-06T00:46:02;96992.40;;;2.02;60.98
79465;BME280;68932;47.410;8.232;2023-04-06T00:48:29;96992.49;;;1.99;61.20
79465;BME280;68932;47.410;8.232;2023-04-06T00:50:56;96989.96;;;1.97;61.17
79465;BME280;68932;47.410;8.232;2023-04-06T00:53:24;96988.71;;;1.93;61.24
79465;BME280;68932;47.410;8.232;2023-04-06T00:55:51;96988.88;;;1.87;61.33
79465;BME280;68932;47.410;8.232;2023-04-06T00:58:18;96986.27;;;1.82;61.19
79465;BME280;68932;47.410;8.232;2023-04-06T01:00:45;96985.73;;;1.77;61.34
79465;BME280;68932;47.410;8.232;2023-04-06T01:03:12;96984.59;;;1.75;61.47
79465;BME280;68932;47.410;8.232;2023-04-06T01:05:39;96985.86;;;1.73;61.63
79465;BME280;68932;47.410;8.232;2023-04-06T01:08:06;96981.23;;;1.72;61.64
79465;BME280;68932;47.410;8.232;2023-04-06T01:10:33;96983.33;;;1.72;61.66
79465;BME280;68932;47.410;8.232;2023-04-06T01:13:00;96982.92;;;1.73;61.76
79465;BME280;68932;47.410;8.232;2023-04-06T01:15:29;96982.47;;;1.71;61.97
79465;BME280;68932;47.410;8.232;2023-04-06T01:17:56;96979.21;;;1.70;62.10
79465;BME280;68932;47.410;8.232;2023-04-06T01:20:23;96975.80;;;1.69;62.39
79465;BME280;68932;47.410;8.232;2023-04-06T01:22:50;96973.61;;;1.67;62.51
79465;BME280;68932;47.410;8.232;2023-04-06T01:25:17;96972.45;;;1.66;62.79
79465;BME280;68932;47.410;8.232;2023-04-06T01:27:44;96972.15;;;1.64;62.89
79465;BME280;68932;47.410;8.232;2023-04-06T01:30:12;96971.58;;;1.66;63.02
79465;BME280;68932;47.410;8.232;2023-04-06T01:32:39;96968.70;;;1.69;63.12
79465;BME280;68932;47.410;8.232;2023-04-06T01:35:08;96969.76;;;1.68;63.16
79465;BME280;68932;47.410;8.232;2023-04-06T01:37:34;96967.40;;;1.67;62.99
79465;BME280;68932;47.410;8.232;2023-04-06T01:40:02;96967.62;;;1.66;63.08
79465;BME280;68932;47.410;8.232;2023-04-06T01:42:29;96968.27;;;1.67;63.15
79465;BME280;68932;47.410;8.232;2023-04-06T01:44:56;96963.77;;;1.67;63.10
79465;BME280;68932;47.410;8.232;2023-04-06T01:47:23;96963.65;;;1.65;63.03
79465;BME280;68932;47.410;8.232;2023-04-06T01:49:50;96961.73;;;1.66;63.11
79465;BME280;68932;47.410;8.232;2023-04-06T01:52:17;96957.64;;;1.64;63.05
79465;BME280;68932;47.410;8.232;2023-04-06T01:54:44;96956.15;;;1.62;63.15
79465;BME280;68932;47.410;8.232;2023-04-06T01:57:11;96957.66;;;1.57;63.03
79465;BME280;68932;47.410;8.232;2023-04-06T01:59:38;96957.16;;;1.56;63.07
79465;BME280;68932;47.410;8.232;2023-04-06T02:02:05;96957.52;;;1.56;63.00
79465;BME280;68932;47.410;8.232;2023-04-06T02:04:32;96959.20;;;1.51;63.17
79465;BME280;68932;47.410;8.232;2023-04-06T02:06:59;96961.05;;;1.48;63.26
79465;BME280;68932;47.410;8.232;2023-04-06T02:09:25;96960.48;;;1.44;63.52
79465;BME280;68932;47.410;8.232;2023-04-06T02:11:52;96965.73;;;1.41;63.69
79465;BME280;68932;47.410;8.232;2023-04-06T02:14:19;96960.63;;;1.39;63.74
79465;BME280;68932;47.410;8.232;2023-04-06T02:16:46;96955.68;;;1.37;63.80
79465;BME280;68932;47.410;8.232;2023-04-06T02:19:13;96955.41;;;1.34;63.74
79465;BME280;68932;47.410;8.232;2023-04-06T02:21:40;96953.59;;;1.31;63.77
79465;BME280;68932;47.410;8.232;2023-04-06T02:24:08;96956.77;;;1.29;63.77
79465;BME280;68932;47.410;8.232;2023-04-06T02:26:35;96952.80;;;1.23;63.83
79465;BME280;68932;47.410;8.232;2023-04-06T02:29:02;96953.56;;;1.21;63.73
79465;BME280;68932;47.410;8.232;2023-04-06T02:31:29;96957.56;;;1.19;63.94
79465;BME280;68932;47.410;8.232;2023-04-06T02:33:56;96962.41;;;1.18;64.17
79465;BME280;68932;47.410;8.232;2023-04-06T02:36:23;96959.98;;;1.19;64.33
79465;BME280;68932;47.410;8.232;2023-04-06T02:38:50;96956.48;;;1.21;64.28
79465;BME280;68932;47.410;8.232;2023-04-06T02:41:17;96955.91;;;1.23;64.47
79465;BME280;68932;47.410;8.232;2023-04-06T02:43:44;96955.84;;;1.26;64.38
79465;BME280;68932;47.410;8.232;2023-04-06T02:46:11;96955.70;;;1.30;64.37
79465;BME280;68932;47.410;8.232;2023-04-06T02:48:38;96957.32;;;1.34;64.45
79465;BME280;68932;47.410;8.232;2023-04-06T02:51:05;96954.31;;;1.37;64.50
79465;BME280;68932;47.410;8.232;2023-04-06T02:53:32;96953.61;;;1.37;64.44
79465;BME280;68932;47.410;8.232;2023-04-06T02:55:59;96955.84;;;1.37;64.57
79465;BME280;68932;47.410;8.232;2023-04-06T02:58:26;96954.54;;;1.35;64.47
79465;BME280;68932;47.410;8.232;2023-04-06T03:00:53;96948.21;;;1.33;64.44
79465;BME280;68932;47.410;8.232;2023-04-06T03:03:20;96947.92;;;1.30;64.53
79465;BME280;68932;47.410;8.232;2023-04-06T03:05:47;96944.18;;;1.28;64.40
79465;BME280;68932;47.410;8.232;2023-04-06T03:08:14;96949.05;;;1.27;64.51
79465;BME280;68932;47.410;8.232;2023-04-06T03:10:41;96949.83;;;1.25;64.28
79465;BME280;68932;47.410;8.232;2023-04-06T03:13:08;96948.38;;;1.21;64.46
79465;BME280;68932;47.410;8.232;2023-04-06T03:15:35;96943.66;;;1.16;64.28
79465;BME280;68932;47.410;8.232;2023-04-06T03:18:02;96951.36;;;1.13;64.15
79465;BME280;68932;47.410;8.232;2023-04-06T03:20:29;96947.65;;;1.10;63.96
79465;BME280;68932;47.410;8.232;2023-04-06T03:22:56;96953.61;;;1.07;64.06
79465;BME280;68932;47.410;8.232;2023-04-06T03:25:23;96952.50;;;1.03;64.22
79465;BME280;68932;47.410;8.232;2023-04-06T03:27:50;96952.46;;;0.99;64.29
79465;BME280;68932;47.410;8.232;2023-04-06T03:30:17;96955.67;;;0.95;64.43
79465;BME280;68932;47.410;8.232;2023-04-06T03:32:44;96955.41;;;0.92;64.44
79465;BME280;68932;47.410;8.232;2023-04-06T03:35:11;96951.55;;;0.88;64.50
79465;BME280;68932;47.410;8.232;2023-04-06T03:37:38;96951.44;;;0.86;64.56
79465;BME280;68932;47.410;8.232;2023-04-06T03:40:07;96949.17;;;0.87;64.67
79465;BME280;68932;47.410;8.232;2023-04-06T03:42:34;96949.77;;;0.90;64.81
79465;BME280;68932;47.410;8.232;2023-04-06T03:45:01;96952.97;;;0.93;64.72
79465;BME280;68932;47.410;8.232;2023-04-06T03:47:28;96955.17;;;0.95;64.69
79465;BME280;68932;47.410;8.232;2023-04-06T03:49:55;96954.50;;;0.94;64.69
79465;BME280;68932;47.410;8.232;2023-04-06T03:52:22;96955.52;;;0.94;64.63
79465;BME280;68932;47.410;8.232;2023-04-06T03:54:49;96955.97;;;0.97;64.71
79465;BME280;68932;47.410;8.232;2023-04-06T03:57:16;96957.13;;;0.98;64.65
79465;BME280;68932;47.410;8.232;2023-04-06T03:59:43;96957.34;;;0.97;64.59
79465;BME280;68932;47.410;8.232;2023-04-06T04:02:10;96959.29;;;0.95;64.60
79465;BME280;68932;47.410;8.232;2023-04-06T04:04:36;96963.80;;;0.94;64.77
79465;BME280;68932;47.410;8.232;2023-04-06T04:07:04;96961.57;;;0.94;64.85
79465;BME280;68932;47.410;8.232;2023-04-06T04:09:31;96964.53;;;0.93;64.94
79465;BME280;68932;47.410;8.232;2023-04-06T04:11:57;96963.00;;;0.92;64.98
79465;BME280;68932;47.410;8.232;2023-04-06T04:14:24;96963.55;;;0.91;64.87
79465;BME280;68932;47.410;8.232;2023-04-06T04:16:51;96961.36;;;0.89;65.11
79465;BME280;68932;47.410;8.232;2023-04-06T04:19:18;96966.40;;;0.88;65.31
79465;BME280;68932;47.410;8.232;2023-04-06T04:21:46;96963.55;;;0.85;65.28
79465;BME280;68932;47.410;8.232;2023-04-06T04:24:13;96967.42;;;0.83;65.96
79465;BME280;68932;47.410;8.232;2023-04-06T04:26:40;96972.80;;;1.18;74.16
79465;BME280;68932;47.410;8.232;2023-04-06T04:29:07;96971.56;;;1.66;77.95
79465;BME280;68932;47.410;8.232;2023-04-06T04:31:34;96979.63;;;2.07;79.50
79465;BME280;68932;47.410;8.232;2023-04-06T04:34:01;96974.47;;;2.17;75.89
79465;BME280;68932;47.410;8.232;2023-04-06T04:36:28;96977.81;;;2.10;72.84
79465;BME280;68932;47.410;8.232;2023-04-06T04:38:55;96976.38;;;2.00;70.33
79465;BME280;68932;47.410;8.232;2023-04-06T04:41:22;96976.55;;;1.90;68.37
79465;BME280;68932;47.410;8.232;2023-04-06T04:43:49;96977.48;;;1.76;67.02
79465;BME280;68932;47.410;8.232;2023-04-06T04:46:15;96979.46;;;1.68;66.95
79465;BME280;68932;47.410;8.232;2023-04-06T04:48:42;96977.68;;;1.58;66.48
79465;BME280;68932;47.410;8.232;2023-04-06T04:51:09;96982.27;;;1.49;66.25
79465;BME280;68932;47.410;8.232;2023-04-06T04:53:36;96982.52;;;1.40;65.79
79465;BME280;68932;47.410;8.232;2023-04-06T04:56:04;96986.51;;;1.34;65.77
79465;BME280;68932;47.410;8.232;2023-04-06T04:58:31;96988.13;;;1.26;65.47
79465;BME280;68932;47.410;8.232;2023-04-06T05:00:58;96987.46;;;1.18;65.68
79465;BME280;68932;47.410;8.232;2023-04-06T05:03:26;96991.89;;;1.14;65.50
79465;BME280;68932;47.410;8.232;2023-04-06T05:05:53;96995.47;;;1.10;65.40
79465;BME280;68932;47.410;8.232;2023-04-06T05:08:20;96997.98;;;1.07;65.55
79465;BME280;68932;47.410;8.232;2023-04-06T05:10:47;97000.63;;;1.05;65.57
79465;BME280;68932;47.410;8.232;2023-04-06T05:13:14;96995.05;;;1.00;65.34
79465;BME280;68932;47.410;8.232;2023-04-06T05:15:41;96993.65;;;0.95;65.33
79465;BME280;68932;47.410;8.232;2023-04-06T05:18:09;96999.58;;;0.92;65.43
79465;BME280;68932;47.410;8.232;2023-04-06T05:20:36;97003.39;;;0.92;65.48
79465;BME280;68932;47.410;8.232;2023-04-06T05:23:03;97003.60;;;0.91;65.46
79465;BME280;68932;47.410;8.232;2023-04-06T05:25:30;97001.92;;;0.89;65.42
79465;BME280;68932;47.410;8.232;2023-04-06T05:27:57;97007.95;;;0.89;65.34
79465;BME280;68932;47.410;8.232;2023-04-06T05:30:24;97005.77;;;0.87;65.42
79465;BME280;68932;47.410;8.232;2023-04-06T05:32:51;97008.55;;;0.86;65.53
79465;BME280;68932;47.410;8.232;2023-04-06T05:35:18;97010.27;;;0.86;65.55
79465;BME280;68932;47.410;8.232;2023-04-06T05:37:46;97012.52;;;0.87;65.28
79465;BME280;68932;47.410;8.232;2023-04-06T05:40:13;97013.73;;;0.86;65.63
79465;BME280;68932;47.410;8.232;2023-04-06T05:42:40;97015.18;;;0.90;65.64
79465;BME280;68932;47.410;8.232;2023-04-06T05:45:11;97017.23;;;0.96;65.45
79465;BME280;68932;47.410;8.232;2023-04-06T05:47:38;97020.15;;;1.04;65.52
79465;BME280;68932;47.410;8.232;2023-04-06T05:50:07;97022.73;;;1.10;65.43
79465;BME280;68932;47.410;8.232;2023-04-06T05:52:34;97024.47;;;1.16;65.30
79465;BME280;68932;47.410;8.232;2023-04-06T05:55:01;97025.62;;;1.24;65.30
79465;BME280;68932;47.410;8.232;2023-04-06T05:57:29;97021.29;;;1.31;65.11
79465;BME280;68932;47.410;8.232;2023-04-06T05:59:55;97026.96;;;1.32;64.81
79465;BME280;68932;47.410;8.232;2023-04-06T06:02:22;97027.73;;;1.35;64.67
79465;BME280;68932;47.410;8.232;2023-04-06T06:04:49;97026.27;;;1.38;64.54
79465;BME280;68932;47.410;8.232;2023-04-06T06:07:17;97027.02;;;1.42;64.37
79465;BME280;68932;47.410;8.232;2023-04-06T06:09:44;97026.89;;;1.47;64.30
79465;BME280;68932;47.410;8.232;2023-04-06T06:12:11;97027.09;;;1.52;64.27
79465;BME280;68932;47.410;8.232;2023-04-06T06:14:38;97031.23;;;1.58;64.20
79465;BME280;68932;47.410;8.232;2023-04-06T06:17:04;97029.36;;;1.63;64.30
79465;BME280;68932;47.410;8.232;2023-04-06T06:19:31;97034.45;;;1.66;64.30
79465;BME280;68932;47.410;8.232;2023-04-06T06:21:58;97037.95;;;1.71;64.34
79465;BME280;68932;47.410;8.232;2023-04-06T06:24:25;97039.48;;;1.77;64.23
79465;BME280;68932;47.410;8.232;2023-04-06T06:26:52;97042.44;;;1.82;64.06
79465;BME280;68932;47.410;8.232;2023-04-06T06:29:19;97042.98;;;1.87;63.83
79465;BME280;68932;47.410;8.232;2023-04-06T06:31:46;97047.33;;;1.93;63.56
79465;BME280;68932;47.410;8.232;2023-04-06T06:34:13;97047.29;;;1.93;62.86
79465;BME280;68932;47.410;8.232;2023-04-06T06:36:40;97047.64;;;1.93;62.61
79465;BME280;68932;47.410;8.232;2023-04-06T06:39:07;97050.30;;;1.97;62.58
79465;BME280;68932;47.410;8.232;2023-04-06T06:41:34;97048.38;;;1.97;62.53
79465;BME280;68932;47.410;8.232;2023-04-06T06:44:01;97043.70;;;1.98;62.42
79465;BME280;68932;47.410;8.232;2023-04-06T06:46:28;97043.14;;;1.99;62.37
79465;BME280;68932;47.410;8.232;2023-04-06T06:48:55;97042.86;;;2.03;62.47
79465;BME280;68932;47.410;8.232;2023-04-06T06:51:22;97041.92;;;2.05;62.18
79465;BME280;68932;47.410;8.232;2023-04-06T06:53:49;97040.17;;;2.06;61.85
79465;BME280;68932;47.410;8.232;2023-04-06T06:56:16;97039.58;;;2.08;61.78
79465;BME280;68932;47.410;8.232;2023-04-06T06:58:43;97039.14;;;2.11;61.75
79465;BME280;68932;47.410;8.232;2023-04-06T07:01:10;97041.77;;;2.16;61.82
79465;BME280;68932;47.410;8.232;2023-04-06T07:03:37;97041.92;;;2.22;61.68
79465;BME280;68932;47.410;8.232;2023-04-06T07:06:04;97044.48;;;2.28;61.81
79465;BME280;68932;47.410;8.232;2023-04-06T07:08:31;97046.31;;;2.35;61.74
79465;BME280;68932;47.410;8.232;2023-04-06T07:10:58;97048.90;;;2.42;61.68
79465;BME280;68932;47.410;8.232;2023-04-06T07:13:25;97047.33;;;2.48;61.41
79465;BME280;68932;47.410;8.232;2023-04-06T07:15:52;97048.69;;;2.53;61.54
79465;BME280;68932;47.410;8.232;2023-04-06T07:18:20;97049.47;;;2.61;61.56
79465;BME280;68932;47.410;8.232;2023-04-06T07:20:47;97049.25;;;2.68;61.18
79465;BME280;68932;47.410;8.232;2023-04-06T07:23:14;97052.83;;;2.75;61.04
79465;BME280;68932;47.410;8.232;2023-04-06T07:25:41;97050.36;;;2.81;60.99
79465;BME280;68932;47.410;8.232;2023-04-06T07:28:08;97049.75;;;2.89;60.94
79465;BME280;68932;47.410;8.232;2023-04-06T07:30:36;97050.54;;;2.97;60.98
79465;BME280;68932;47.410;8.232;2023-04-06T07:33:03;97050.59;;;3.05;61.01
79465;BME280;68932;47.410;8.232;2023-04-06T07:35:30;97050.30;;;3.13;60.66
79465;BME280;68932;47.410;8.232;2023-04-06T07:37:58;97049.19;;;3.20;60.58
79465;BME280;68932;47.410;8.232;2023-04-06T07:40:25;97047.39;;;3.28;60.28
79465;BME280;68932;47.410;8.232;2023-04-06T07:42:52;97040.86;;;3.36;60.18
79465;BME280;68932;47.410;8.232;2023-04-06T07:45:19;97042.09;;;3.45;60.29
79465;BME280;68932;47.410;8.232;2023-04-06T07:47:46;97038.07;;;3.55;60.07
79465;BME280;68932;47.410;8.232;2023-04-06T07:50:14;97039.61;;;3.65;59.78
79465;BME280;68932;47.410;8.232;2023-04-06T07:52:41;97040.77;;;3.76;59.63
79465;BME280;68932;47.410;8.232;2023-04-06T07:55:09;97046.27;;;3.87;59.58
79465;BME280;68932;47.410;8.232;2023-04-06T07:57:36;97048.42;;;3.98;59.20
79465;BME280;68932;47.410;8.232;2023-04-06T08:00:06;97047.52;;;4.08;58.98
79465;BME280;68932;47.410;8.232;2023-04-06T08:02:33;97045.05;;;4.18;58.50
79465;BME280;68932;47.410;8.232;2023-04-06T08:05:00;97047.06;;;4.28;58.23
79465;BME280;68932;47.410;8.232;2023-04-06T08:07:27;97044.60;;;4.39;57.36
79465;BME280;68932;47.410;8.232;2023-04-06T08:09:54;97047.53;;;4.48;56.69
79465;BME280;68932;47.410;8.232;2023-04-06T08:12:21;97045.91;;;4.57;56.58
79465;BME280;68932;47.410;8.232;2023-04-06T08:14:48;97049.00;;;4.67;56.64
79465;BME280;68932;47.410;8.232;2023-04-06T08:17:15;97043.65;;;4.78;56.37
79465;BME280;68932;47.410;8.232;2023-04-06T08:19:43;97044.59;;;4.90;56.46
79465;BME280;68932;47.410;8.232;2023-04-06T08:22:13;97043.25;;;5.01;56.05
79465;BME280;68932;47.410;8.232;2023-04-06T08:24:40;97038.81;;;5.11;55.64
79465;BME280;68932;47.410;8.232;2023-04-06T08:27:07;97035.59;;;5.22;55.40
79465;BME280;68932;47.410;8.232;2023-04-06T08:29:34;97036.85;;;5.32;55.32
79465;BME280;68932;47.410;8.232;2023-04-06T08:32:01;97035.39;;;5.42;54.94
79465;BME280;68932;47.410;8.232;2023-04-06T08:34:27;97040.05;;;5.50;54.47
79465;BME280;68932;47.410;8.232;2023-04-06T08:36:54;97038.66;;;5.58;54.04
79465;BME280;68932;47.410;8.232;2023-04-06T08:39:22;97043.34;;;5.67;53.70
79465;BME280;68932;47.410;8.232;2023-04-06T08:41:48;97045.09;;;5.74;53.65
79465;BME280;68932;47.410;8.232;2023-04-06T08:44:17;97042.79;;;5.82;53.20
79465;BME280;68932;47.410;8.232;2023-04-06T08:46:44;97041.09;;;5.89;51.83
79465;BME280;68932;47.410;8.232;2023-04-06T08:49:11;97038.09;;;5.94;51.43
79465;BME280;68932;47.410;8.232;2023-04-06T08:51:38;97037.48;;;6.00;51.07
79465;BME280;68932;47.410;8.232;2023-04-06T08:54:06;97039.27;;;6.07;50.96
79465;BME280;68932;47.410;8.232;2023-04-06T08:56:36;97035.78;;;6.14;50.92
79465;BME280;68932;47.410;8.232;2023-04-06T08:59:04;97037.30;;;6.23;50.59
79465;BME280;68932;47.410;8.232;2023-04-06T09:01:31;97031.30;;;6.28;49.67
79465;BME280;68932;47.410;8.232;2023-04-06T09:04:01;97033.75;;;6.35;49.66
79465;BME280;68932;47.410;8.232;2023-04-06T09:06:28;97034.25;;;6.43;49.43
79465;BME280;68932;47.410;8.232;2023-04-06T09:08:55;97033.50;;;6.51;49.69
79465;BME280;68932;47.410;8.232;2023-04-06T09:11:22;97034.90;;;6.58;48.99
79465;BME280;68932;47.410;8.232;2023-04-06T09:13:50;97030.42;;;6.64;49.08
79465;BME280;68932;47.410;8.232;2023-04-06T09:16:18;97032.46;;;6.72;49.21
79465;BME280;68932;47.410;8.232;2023-04-06T09:18:46;97024.40;;;6.81;49.07
79465;BME280;68932;47.410;8.232;2023-04-06T09:21:15;97023.16;;;6.88;48.73
79465;BME280;68932;47.410;8.232;2023-04-06T09:23:43;97021.08;;;6.95;48.36
79465;BME280;68932;47.410;8.232;2023-04-06T09:26:11;97022.69;;;7.01;48.06
79465;BME280;68932;47.410;8.232;2023-04-06T09:28:49;97023.52;;;7.08;48.62
79465;BME280;68932;47.410;8.232;2023-04-06T09:31:23;97024.13;;;7.17;48.23
79465;BME280;68932;47.410;8.232;2023-04-06T09:33:50;97020.30;;;7.24;47.93
79465;BME280;68932;47.410;8.232;2023-04-06T09:36:18;97021.48;;;7.31;47.18
79465;BME280;68932;47.410;8.232;2023-04-06T09:38:57;97014.80;;;7.39;47.27
79465;BME280;68932;47.410;8.232;2023-04-06T09:41:25;97015.54;;;7.48;46.87
79465;BME280;68932;47.410;8.232;2023-04-06T09:44:01;97012.82;;;7.56;46.71
79465;BME280;68932;47.410;8.232;2023-04-06T09:46:32;97010.77;;;7.66;46.17
79465;BME280;68932;47.410;8.232;2023-04-06T09:49:00;97009.77;;;7.75;46.33
79465;BME280;68932;47.410;8.232;2023-04-06T09:51:30;97010.15;;;7.84;45.34
79465;BME280;68932;47.410;8.232;2023-04-06T09:54:00;97007.07;;;7.92;45.17
79465;BME280;68932;47.410;8.232;2023-04-06T09:56:30;97005.22;;;8.01;44.54
79465;BME280;68932;47.410;8.232;2023-04-06T09:59:02;97002.95;;;8.10;44.57
79465;BME280;68932;47.410;8.232;2023-04-06T10:01:33;97003.21;;;8.18;43.57
79465;BME280;68932;47.410;8.232;2023-04-06T10:04:07;97001.34;;;8.26;43.43
79465;BME280;68932;47.410;8.232;2023-04-06T10:06:36;96998.44;;;8.34;42.99
79465;BME280;68932;47.410;8.232;2023-04-06T10:09:05;96995.26;;;8.45;43.63
79465;BME280;68932;47.410;8.232;2023-04-06T10:11:34;96991.71;;;8.55;44.36
79465;BME280;68932;47.410;8.232;2023-04-06T10:14:01;96990.97;;;8.62;42.60
79465;BME280;68932;47.410;8.232;2023-04-06T10:16:28;96990.41;;;8.69;42.78
79465;BME280;68932;47.410;8.232;2023-04-06T10:19:00;96990.09;;;8.80;43.67
79465;BME280;68932;47.410;8.232;2023-04-06T10:21:29;96990.41;;;8.93;43.27
79465;BME280;68932;47.410;8.232;2023-04-06T10:24:00;96983.61;;;9.01;41.93
79465;BME280;68932;47.410;8.232;2023-04-06T10:26:27;96985.42;;;9.12;42.25
79465;BME280;68932;47.410;8.232;2023-04-06T10:28:55;96990.46;;;9.22;41.73
79465;BME280;68932;47.410;8.232;2023-04-06T10:31:28;96988.77;;;9.32;41.34
79465;BME280;68932;47.410;8.232;2023-04-06T10:33:56;96985.29;;;9.40;41.12
79465;BME280;68932;47.410;8.232;2023-04-06T10:36:24;96981.31;;;9.48;40.73
79465;BME280;68932;47.410;8.232;2023-04-06T10:38:56;96982.63;;;9.55;40.20
79465;BME280;68932;47.410;8.232;2023-04-06T10:41:24;96975.70;;;9.60;39.49
79465;BME280;68932;47.410;8.232;2023-04-06T10:43:58;96974.99;;;9.66;40.05
79465;BME280;68932;47.410;8.232;2023-04-06T10:46:27;96976.96;;;9.73;39.70
79465;BME280;68932;47.410;8.232;2023-04-06T10:48:54;96976.73;;;9.80;39.34
79465;BME280;68932;47.410;8.232;2023-04-06T10:51:27;96977.84;;;9.84;39.30
79465;BME280;68932;47.410;8.232;2023-04-06T10:53:55;96977.72;;;9.89;38.79
79465;BME280;68932;47.410;8.232;2023-04-06T10:56:23;96977.38;;;9.94;39.04
79465;BME280;68932;47.410;8.232;2023-04-06T10:58:52;96978.02;;;10.01;39.05
79465;BME280;68932;47.410;8.232;2023-04-06T11:01:21;96975.70;;;10.10;40.32
79465;BME280;68932;47.410;8.232;2023-04-06T11:03:50;96976.34;;;10.22;40.27
79465;BME280;68932;47.410;8.232;2023-04-06T11:06:21;96977.48;;;10.32;39.72
79465;BME280;68932;47.410;8.232;2023-04-06T11:08:48;96970.44;;;10.41;38.79
79465;BME280;68932;47.410;8.232;2023-04-06T11:11:17;96972.14;;;10.47;38.55
79465;BME280;68932;47.410;8.232;2023-04-06T11:13:46;96970.92;;;10.54;38.42
79465;BME280;68932;47.410;8.232;2023-04-06T11:16:14;96969.20;;;10.59;38.38
79465;BME280;68932;47.410;8.232;2023-04-06T11:18:53;96964.60;;;10.65;38.28
79465;BME280;68932;47.410;8.232;2023-04-06T11:21:32;96958.48;;;10.70;37.81
79465;BME280;68932;47.410;8.232;2023-04-06T11:24:08;96958.55;;;10.72;37.45
79465;BME280;68932;47.410;8.232;2023-04-06T11:26:41;96955.23;;;10.72;37.49
79465;BME280;68932;47.410;8.232;2023-04-06T11:29:08;96954.45;;;10.73;37.03
79465;BME280;68932;47.410;8.232;2023-04-06T11:31:40;96953.77;;;10.73;36.63
79465;BME280;68932;47.410;8.232;2023-04-06T11:34:11;96952.63;;;10.76;37.21
79465;BME280;68932;47.410;8.232;2023-04-06T11:36:40;96948.68;;;10.81;37.18
79465;BME280;68932;47.410;8.232;2023-04-06T11:39:08;96945.36;;;10.86;37.57
79465;BME280;68932;47.410;8.232;2023-04-06T11:41:35;96941.96;;;10.92;37.29
79465;BME280;68932;47.410;8.232;2023-04-06T11:44:02;96936.75;;;10.99;37.57
79465;BME280;68932;47.410;8.232;2023-04-06T11:46:30;96932.65;;;11.05;37.24
79465;BME280;68932;47.410;8.232;2023-04-06T11:48:59;96931.13;;;11.09;36.92
79465;BME280;68932;47.410;8.232;2023-04-06T11:51:27;96924.40;;;11.16;37.45
79465;BME280;68932;47.410;8.232;2023-04-06T11:53:55;96924.77;;;11.26;37.40
79465;BME280;68932;47.410;8.232;2023-04-06T11:56:26;96921.97;;;11.35;36.62
79465;BME280;68932;47.410;8.232;2023-04-06T11:58:55;96926.05;;;11.42;35.51
79465;BME280;68932;47.410;8.232;2023-04-06T12:01:22;96923.82;;;11.47;34.95
79465;BME280;68932;47.410;8.232;2023-04-06T12:03:49;96920.98;;;11.52;35.86
79465;BME280;68932;47.410;8.232;2023-04-06T12:06:17;96919.73;;;11.60;36.14
79465;BME280;68932;47.410;8.232;2023-04-06T12:08:44;96917.23;;;11.70;36.12
79465;BME280;68932;47.410;8.232;2023-04-06T12:11:11;96919.02;;;11.80;35.85
79465;BME280;68932;47.410;8.232;2023-04-06T12:13:37;96913.21;;;11.88;35.28
79465;BME280;68932;47.410;8.232;2023-04-06T12:16:05;96915.05;;;11.91;34.53
79465;BME280;68932;47.410;8.232;2023-04-06T12:18:32;96912.33;;;11.87;34.24
79465;BME280;68932;47.410;8.232;2023-04-06T12:20:59;96909.23;;;11.84;34.01
79465;BME280;68932;47.410;8.232;2023-04-06T12:23:26;96908.30;;;11.85;34.25
79465;BME280;68932;47.410;8.232;2023-04-06T12:25:53;96904.52;;;11.84;34.00
79465;BME280;68932;47.410;8.232;2023-04-06T12:28:20;96903.51;;;11.83;34.55
79465;BME280;68932;47.410;8.232;2023-04-06T12:30:47;96901.81;;;11.87;34.62
79465;BME280;68932;47.410;8.232;2023-04-06T12:33:14;96897.73;;;11.91;35.21
79465;BME280;68932;47.410;8.232;2023-04-06T12:35:41;96894.45;;;11.99;35.37
79465;BME280;68932;47.410;8.232;2023-04-06T12:38:08;96888.81;;;12.07;34.82
79465;BME280;68932;47.410;8.232;2023-04-06T12:40:38;96891.50;;;12.14;35.41
79465;BME280;68932;47.410;8.232;2023-04-06T12:43:05;96896.38;;;12.21;35.04
79465;BME280;68932;47.410;8.232;2023-04-06T12:45:32;96894.06;;;12.26;34.44
79465;BME280;68932;47.410;8.232;2023-04-06T12:47:59;96896.02;;;12.30;34.94
79465;BME280;68932;47.410;8.232;2023-04-06T12:50:26;96892.74;;;12.34;34.42
79465;BME280;68932;47.410;8.232;2023-04-06T12:52:53;96892.46;;;12.34;33.80
79465;BME280;68932;47.410;8.232;2023-04-06T12:55:19;96892.83;;;12.33;33.81
79465;BME280;68932;47.410;8.232;2023-04-06T12:57:46;96895.30;;;12.41;33.89
79465;BME280;68932;47.410;8.232;2023-04-06T13:00:15;96883.17;;;12.48;33.83
79465;BME280;68932;47.410;8.232;2023-04-06T13:02:45;96885.05;;;12.58;34.13
79465;BME280;68932;47.410;8.232;2023-04-06T13:05:12;96882.86;;;12.71;35.36
79465;BME280;68932;47.410;8.232;2023-04-06T13:07:39;96882.11;;;12.83;34.34
79465;BME280;68932;47.410;8.232;2023-04-06T13:10:08;96882.03;;;12.93;34.30
79465;BME280;68932;47.410;8.232;2023-04-06T13:12:35;96873.05;;;13.00;34.71